createdAt,value
2022-08-31T00:00:47.149Z,90
2022-08-31T00:01:47.632Z,91
2022-08-31T00:02:48.075Z,91
2022-08-31T00:03:48.827Z,91
2022-08-31T00:04:49.283Z,91
2022-08-31T00:05:49.736Z,91
2022-08-31T00:06:54.055Z,91
2022-08-31T00:07:55.758Z,91
2022-08-31T00:08:56.569Z,91
2022-08-31T00:09:56.983Z,91
2022-08-31T00:10:57.401Z,91
2022-08-31T00:11:58.157Z,91
2022-08-31T00:12:58.553Z,91
2022-08-31T00:13:59.338Z,91
2022-08-31T00:15:00.065Z,91
2022-08-31T00:16:00.549Z,91
2022-08-31T00:17:00.976Z,91
2022-08-31T00:18:01.431Z,91
2022-08-31T00:19:02.237Z,91
2022-08-31T00:20:02.659Z,91
2022-08-31T00:21:03.070Z,91
2022-08-31T00:22:03.485Z,91
2022-08-31T00:23:03.909Z,91
2022-08-31T00:24:04.704Z,91
2022-08-31T00:25:05.123Z,91
2022-08-31T00:26:05.549Z,91
2022-08-31T00:27:05.978Z,91
2022-08-31T00:28:06.411Z,91
2022-08-31T00:29:07.202Z,92
2022-08-31T00:30:07.625Z,92
2022-08-31T00:31:07.998Z,92
2022-08-31T00:32:08.543Z,92
2022-08-31T00:33:09.021Z,92
2022-08-31T00:34:09.836Z,92
2022-08-31T00:35:10.209Z,92
2022-08-31T00:36:10.622Z,92
2022-08-31T00:37:11.042Z,92
2022-08-31T00:38:11.440Z,92
2022-08-31T00:39:12.251Z,92
2022-08-31T00:40:12.754Z,92
2022-08-31T00:41:13.228Z,92
2022-08-31T00:42:13.612Z,92
2022-08-31T00:43:14.002Z,92
2022-08-31T00:44:14.827Z,92
2022-08-31T00:45:15.241Z,92
2022-08-31T00:46:15.731Z,92
2022-08-31T00:47:16.217Z,92
2022-08-31T00:48:16.624Z,92
2022-08-31T00:49:17.457Z,92
2022-08-31T00:50:17.845Z,92
2022-08-31T00:51:18.963Z,92
2022-08-31T00:52:19.500Z,92
2022-08-31T00:53:19.892Z,92
2022-08-31T00:54:20.705Z,92
2022-08-31T00:55:21.112Z,92
2022-08-31T00:56:21.559Z,92
2022-08-31T00:57:34.264Z,92
2022-08-31T00:58:35.058Z,92
2022-08-31T00:59:35.755Z,92
2022-08-31T01:00:36.181Z,92
2022-08-31T01:01:36.693Z,92
2022-08-31T01:02:37.248Z,92
2022-08-31T01:03:37.671Z,92
2022-08-31T01:04:38.454Z,92
2022-08-31T01:05:38.856Z,92
2022-08-31T01:06:39.249Z,92
2022-08-31T01:07:39.687Z,92
2022-08-31T01:08:40.102Z,92
2022-08-31T01:09:41.243Z,92
2022-08-31T01:10:45.545Z,92
2022-08-31T01:11:45.965Z,92
2022-08-31T01:12:46.399Z,92
2022-08-31T01:13:46.804Z,92
2022-08-31T01:14:47.586Z,93
2022-08-31T01:15:47.977Z,93
2022-08-31T01:16:51.843Z,93
2022-08-31T01:17:52.309Z,93
2022-08-31T01:18:52.701Z,93
2022-08-31T01:19:53.529Z,93
2022-08-31T01:20:53.916Z,93
2022-08-31T01:21:54.329Z,93
2022-08-31T01:22:54.738Z,93
2022-08-31T01:23:55.132Z,93
2022-08-31T01:24:55.955Z,93
2022-08-31T01:25:56.371Z,93
2022-08-31T01:26:56.797Z,93
2022-08-31T01:27:57.192Z,93
2022-08-31T01:28:57.597Z,93
2022-08-31T01:29:58.307Z,93
2022-08-31T01:30:58.718Z,93
2022-08-31T01:31:59.168Z,93
2022-08-31T01:32:59.646Z,93
2022-08-31T01:34:00.038Z,93
2022-08-31T01:35:00.776Z,93
2022-08-31T01:36:01.196Z,93
2022-08-31T01:37:01.631Z,93
2022-08-31T01:38:02.012Z,93
2022-08-31T01:39:02.419Z,93
2022-08-31T01:40:03.310Z,93
2022-08-31T01:41:03.745Z,93
2022-08-31T01:42:04.170Z,93
2022-08-31T01:43:04.597Z,93
2022-08-31T01:44:05.008Z,93
2022-08-31T01:45:05.752Z,93
2022-08-31T01:46:06.203Z,93
2022-08-31T01:47:09.552Z,93
2022-08-31T01:48:09.980Z,93
2022-08-31T01:49:10.367Z,93
2022-08-31T01:50:11.186Z,93
2022-08-31T01:51:12.542Z,93
2022-08-31T01:52:13.112Z,93
2022-08-31T01:53:13.585Z,93
2022-08-31T01:54:14.016Z,93
2022-08-31T01:55:14.741Z,93
2022-08-31T01:56:15.106Z,93
2022-08-31T01:57:15.495Z,93
2022-08-31T01:58:15.889Z,93
2022-08-31T01:59:16.327Z,93
2022-08-31T02:00:17.103Z,93
2022-08-31T02:01:33.128Z,93
2022-08-31T02:02:34.970Z,93
2022-08-31T02:03:35.428Z,93
2022-08-31T02:04:35.818Z,93
2022-08-31T02:05:36.251Z,93
2022-08-31T02:06:36.609Z,93
2022-08-31T02:07:36.963Z,93
2022-08-31T02:08:37.359Z,93
2022-08-31T02:09:40.477Z,93
2022-08-31T02:10:41.188Z,93
2022-08-31T02:11:41.584Z,93
2022-08-31T02:12:42.007Z,93
2022-08-31T02:13:42.404Z,93
2022-08-31T02:14:42.762Z,93
2022-08-31T02:15:43.557Z,93
2022-08-31T02:16:43.984Z,93
2022-08-31T02:17:44.408Z,93
2022-08-31T02:18:44.945Z,93
2022-08-31T02:19:45.302Z,93
2022-08-31T02:20:46.065Z,93
2022-08-31T02:21:46.427Z,93
2022-08-31T02:22:46.833Z,93
2022-08-31T02:23:47.201Z,93
2022-08-31T02:24:47.603Z,93
2022-08-31T02:25:48.409Z,93
2022-08-31T02:26:53.533Z,93
2022-08-31T02:27:54.326Z,93
2022-08-31T02:28:54.726Z,93
2022-08-31T02:29:55.126Z,93
2022-08-31T02:30:55.947Z,93
2022-08-31T02:31:56.413Z,93
2022-08-31T02:32:56.810Z,93
2022-08-31T02:33:57.213Z,93
2022-08-31T02:34:57.571Z,93
2022-08-31T02:35:58.249Z,93
2022-08-31T02:36:58.651Z,93
2022-08-31T02:37:59.565Z,93
2022-08-31T02:38:59.925Z,93
2022-08-31T02:40:00.515Z,93
2022-08-31T02:41:01.365Z,93
2022-08-31T02:42:01.757Z,93
2022-08-31T02:43:02.132Z,93
2022-08-31T02:44:02.524Z,93
2022-08-31T02:45:02.934Z,93
2022-08-31T02:46:03.695Z,93
2022-08-31T02:47:04.080Z,93
2022-08-31T02:48:04.444Z,93
2022-08-31T02:49:04.870Z,93
2022-08-31T02:50:05.235Z,93
2022-08-31T02:51:06.034Z,93
2022-08-31T02:52:06.416Z,93
2022-08-31T02:53:06.821Z,93
2022-08-31T02:54:07.223Z,93
2022-08-31T02:55:07.588Z,93
2022-08-31T02:56:08.353Z,93
2022-08-31T02:57:08.761Z,93
2022-08-31T02:58:09.182Z,93
2022-08-31T02:59:09.580Z,93
2022-08-31T03:00:09.976Z,93
2022-08-31T03:01:10.866Z,93
2022-08-31T03:02:11.441Z,93
2022-08-31T03:03:12.066Z,93
2022-08-31T03:04:12.575Z,93
2022-08-31T03:05:12.937Z,93
2022-08-31T03:06:13.653Z,93
2022-08-31T03:07:14.042Z,93
2022-08-31T03:08:14.440Z,93
2022-08-31T03:09:14.839Z,93
2022-08-31T03:10:15.212Z,93
2022-08-31T03:11:16.034Z,93
2022-08-31T03:12:16.421Z,93
2022-08-31T03:13:16.799Z,93
2022-08-31T03:14:17.222Z,93
2022-08-31T03:15:17.595Z,93
2022-08-31T03:16:18.344Z,93
2022-08-31T03:17:18.763Z,93
2022-08-31T03:18:19.160Z,93
2022-08-31T03:19:19.540Z,93
2022-08-31T03:20:21.181Z,93
2022-08-31T03:21:21.995Z,93
2022-08-31T03:22:22.358Z,93
2022-08-31T03:23:23.940Z,93
2022-08-31T03:24:25.038Z,93
2022-08-31T03:25:27.827Z,93
2022-08-31T03:26:28.558Z,93
2022-08-31T03:27:28.958Z,93
2022-08-31T03:28:29.342Z,93
2022-08-31T03:29:29.700Z,94
2022-08-31T03:30:31.495Z,94
2022-08-31T03:31:32.536Z,94
2022-08-31T03:32:32.992Z,94
2022-08-31T03:33:33.388Z,94
2022-08-31T03:34:33.780Z,94
2022-08-31T03:35:34.175Z,94
2022-08-31T03:36:34.970Z,94
2022-08-31T03:37:35.496Z,94
2022-08-31T03:38:35.869Z,94
2022-08-31T03:39:36.262Z,94
2022-08-31T03:40:36.733Z,94
2022-08-31T03:41:37.486Z,94
2022-08-31T03:42:37.889Z,94
2022-08-31T03:43:38.295Z,94
2022-08-31T03:44:38.676Z,94
2022-08-31T03:45:39.052Z,94
2022-08-31T03:46:39.773Z,94
2022-08-31T03:47:44.715Z,94
2022-08-31T03:48:45.493Z,94
2022-08-31T03:49:45.857Z,94
2022-08-31T03:50:46.235Z,94
2022-08-31T03:51:47.015Z,94
2022-08-31T03:52:47.385Z,94
2022-08-31T03:53:47.798Z,94
2022-08-31T03:54:48.192Z,94
2022-08-31T03:55:48.554Z,94
2022-08-31T03:56:49.311Z,94
2022-08-31T03:57:53.038Z,94
2022-08-31T03:58:53.423Z,94
2022-08-31T03:59:53.792Z,94
2022-08-31T04:00:54.156Z,94
2022-08-31T04:01:54.910Z,94
2022-08-31T04:02:55.414Z,94
2022-08-31T04:03:55.882Z,94
2022-08-31T04:04:56.290Z,94
2022-08-31T04:05:56.687Z,94
2022-08-31T04:06:57.416Z,94
2022-08-31T04:07:57.823Z,94
2022-08-31T04:08:58.182Z,94
2022-08-31T04:09:58.927Z,94
2022-08-31T04:10:59.324Z,94
2022-08-31T04:11:59.987Z,94
2022-08-31T04:13:00.386Z,94
2022-08-31T04:14:00.744Z,94
2022-08-31T04:15:01.142Z,94
2022-08-31T04:16:01.523Z,94
2022-08-31T04:17:02.354Z,94
2022-08-31T04:18:02.734Z,94
2022-08-31T04:19:03.097Z,94
2022-08-31T04:20:08.345Z,94
2022-08-31T04:21:08.753Z,94
2022-08-31T04:22:09.551Z,94
2022-08-31T04:23:09.918Z,94
2022-08-31T04:24:10.327Z,94
2022-08-31T04:25:10.690Z,94
2022-08-31T04:26:11.080Z,94
2022-08-31T04:27:11.768Z,94
2022-08-31T04:28:12.139Z,94
2022-08-31T04:29:13.618Z,94
2022-08-31T04:30:14.263Z,94
2022-08-31T04:31:14.704Z,94
2022-08-31T04:32:15.577Z,94
2022-08-31T04:33:16.059Z,94
2022-08-31T04:34:16.447Z,94
2022-08-31T04:35:16.827Z,94
2022-08-31T04:36:17.215Z,94
2022-08-31T04:37:18.048Z,94
2022-08-31T04:38:18.410Z,94
2022-08-31T04:39:19.420Z,94
2022-08-31T04:40:20.048Z,94
2022-08-31T04:41:20.474Z,94
2022-08-31T04:42:20.885Z,94
2022-08-31T04:43:21.279Z,94
2022-08-31T04:44:24.513Z,94
2022-08-31T04:45:24.901Z,94
2022-08-31T04:46:25.328Z,94
2022-08-31T04:47:25.830Z,94
2022-08-31T04:48:26.233Z,94
2022-08-31T04:49:26.619Z,94
2022-08-31T04:50:26.975Z,94
2022-08-31T04:51:27.357Z,94
2022-08-31T04:52:28.248Z,94
2022-08-31T04:53:28.964Z,94
2022-08-31T04:54:29.372Z,94
2022-08-31T04:55:29.778Z,94
2022-08-31T04:56:30.976Z,94
2022-08-31T04:57:31.751Z,94
2022-08-31T04:58:32.148Z,94
2022-08-31T04:59:32.561Z,94
2022-08-31T05:00:32.944Z,94
2022-08-31T05:01:38.637Z,94
2022-08-31T05:02:45.290Z,94
2022-08-31T05:03:48.162Z,94
2022-08-31T05:04:48.563Z,94
2022-08-31T05:05:48.949Z,94
2022-08-31T05:06:49.355Z,94
2022-08-31T05:07:50.126Z,94
2022-08-31T05:08:50.495Z,94
2022-08-31T05:09:50.852Z,94
2022-08-31T05:10:51.205Z,94
2022-08-31T05:11:51.597Z,94
2022-08-31T05:12:52.346Z,94
2022-08-31T05:13:52.779Z,94
2022-08-31T05:14:53.182Z,94
2022-08-31T05:15:54.995Z,94
2022-08-31T05:16:55.614Z,94
2022-08-31T05:17:56.459Z,94
2022-08-31T05:18:56.830Z,94
2022-08-31T05:19:57.191Z,94
2022-08-31T05:20:57.732Z,94
2022-08-31T05:21:58.096Z,94
2022-08-31T05:22:58.898Z,94
2022-08-31T05:23:59.289Z,94
2022-08-31T05:24:59.690Z,94
2022-08-31T05:26:00.078Z,94
2022-08-31T05:27:00.459Z,94
2022-08-31T05:28:01.129Z,94
2022-08-31T05:29:01.490Z,94
2022-08-31T05:30:01.887Z,94
2022-08-31T05:31:02.318Z,94
2022-08-31T05:32:02.758Z,94
2022-08-31T05:33:03.564Z,94
2022-08-31T05:34:03.965Z,94
2022-08-31T05:35:04.333Z,94
2022-08-31T05:36:04.730Z,94
2022-08-31T05:37:05.128Z,94
2022-08-31T05:38:05.822Z,94
2022-08-31T05:39:06.298Z,94
2022-08-31T05:40:06.764Z,94
2022-08-31T05:41:07.207Z,94
2022-08-31T05:42:07.574Z,94
2022-08-31T05:43:08.292Z,94
2022-08-31T05:44:08.700Z,94
2022-08-31T05:45:09.059Z,94
2022-08-31T05:46:10.553Z,94
2022-08-31T05:47:11.186Z,94
2022-08-31T05:48:12.039Z,94
2022-08-31T05:49:13.400Z,94
2022-08-31T05:50:14.986Z,94
2022-08-31T05:51:15.727Z,94
2022-08-31T05:52:16.126Z,94
2022-08-31T05:53:16.996Z,94
2022-08-31T05:54:17.473Z,94
2022-08-31T05:55:17.874Z,94
2022-08-31T05:56:19.183Z,94
2022-08-31T05:57:23.324Z,94
2022-08-31T05:58:26.742Z,94
2022-08-31T05:59:27.138Z,94
2022-08-31T06:00:27.528Z,94
2022-08-31T06:01:27.945Z,94
2022-08-31T06:02:29.479Z,94
2022-08-31T06:03:30.495Z,94
2022-08-31T06:04:30.885Z,94
2022-08-31T06:05:31.309Z,94
2022-08-31T06:06:31.719Z,94
2022-08-31T06:07:32.119Z,94
2022-08-31T06:08:32.815Z,94
2022-08-31T06:09:33.200Z,94
2022-08-31T06:10:33.570Z,94
2022-08-31T06:11:33.985Z,94
2022-08-31T06:12:34.409Z,94
2022-08-31T06:13:35.190Z,94
2022-08-31T06:14:36.398Z,94
2022-08-31T06:15:39.494Z,94
2022-08-31T06:16:43.056Z,94
2022-08-31T06:17:43.486Z,94
2022-08-31T06:18:44.254Z,94
2022-08-31T06:19:44.656Z,94
2022-08-31T06:20:45.060Z,94
2022-08-31T06:21:49.325Z,94
2022-08-31T06:22:50.986Z,94
2022-08-31T06:23:51.753Z,94
2022-08-31T06:24:52.145Z,94
2022-08-31T06:25:52.538Z,94
2022-08-31T06:26:57.271Z,94
2022-08-31T06:27:58.162Z,94
2022-08-31T06:28:58.874Z,94
2022-08-31T06:29:59.240Z,94
2022-08-31T06:30:59.679Z,94
2022-08-31T06:32:00.176Z,94
2022-08-31T06:33:00.538Z,94
2022-08-31T06:34:01.224Z,94
2022-08-31T06:35:01.589Z,94
2022-08-31T06:36:01.990Z,94
2022-08-31T06:37:03.297Z,94
2022-08-31T06:38:03.681Z,94
2022-08-31T06:39:04.437Z,94
2022-08-31T06:40:04.831Z,94
2022-08-31T06:41:05.279Z,94
2022-08-31T06:42:05.706Z,94
2022-08-31T06:43:06.110Z,94
2022-08-31T06:44:06.901Z,94
2022-08-31T06:45:07.284Z,94
2022-08-31T06:46:07.711Z,94
2022-08-31T06:47:08.167Z,94
2022-08-31T06:48:08.575Z,94
2022-08-31T06:49:09.363Z,94
2022-08-31T06:50:09.766Z,94
2022-08-31T06:51:10.133Z,94
2022-08-31T06:52:10.513Z,94
2022-08-31T06:53:10.895Z,94
2022-08-31T06:54:28.585Z,94
2022-08-31T06:55:30.057Z,94
2022-08-31T06:56:30.453Z,94
2022-08-31T06:57:30.807Z,94
2022-08-31T06:58:32.283Z,94
2022-08-31T06:59:33.113Z,94
2022-08-31T07:00:33.475Z,94
2022-08-31T07:01:35.467Z,94
2022-08-31T07:02:36.695Z,94
2022-08-31T07:03:37.142Z,94
2022-08-31T07:04:37.805Z,94
2022-08-31T07:05:38.163Z,94
2022-08-31T07:06:38.566Z,94
2022-08-31T07:07:38.958Z,94
2022-08-31T07:08:39.358Z,94
2022-08-31T07:09:40.041Z,94
2022-08-31T07:10:40.439Z,93
2022-08-31T07:11:44.355Z,93
2022-08-31T07:12:45.261Z,93
2022-08-31T07:13:45.653Z,93
2022-08-31T07:14:50.427Z,93
2022-08-31T07:15:55.290Z,93
2022-08-31T07:16:55.724Z,93
2022-08-31T07:17:56.104Z,93
2022-08-31T07:18:56.520Z,93
2022-08-31T07:19:57.266Z,93
2022-08-31T07:20:57.802Z,93
2022-08-31T07:21:59.408Z,93
2022-08-31T07:22:59.805Z,93
2022-08-31T07:24:00.211Z,93
2022-08-31T07:25:00.888Z,93
2022-08-31T07:26:01.289Z,93
2022-08-31T07:27:01.680Z,93
2022-08-31T07:28:02.074Z,93
2022-08-31T07:29:02.476Z,93
2022-08-31T07:30:03.347Z,93
2022-08-31T07:31:03.837Z,93
2022-08-31T07:32:04.220Z,93
2022-08-31T07:33:04.604Z,93
2022-08-31T07:34:04.998Z,93
2022-08-31T07:35:08.851Z,93
2022-08-31T07:36:09.269Z,93
2022-08-31T07:37:09.675Z,93
2022-08-31T07:38:10.072Z,93
2022-08-31T07:39:10.465Z,93
2022-08-31T07:40:11.282Z,93
2022-08-31T07:41:11.709Z,93
2022-08-31T07:42:12.071Z,93
2022-08-31T07:43:12.476Z,93
2022-08-31T07:44:12.871Z,93
2022-08-31T07:45:14.469Z,93
2022-08-31T07:46:14.913Z,93
2022-08-31T07:47:15.308Z,93
2022-08-31T07:48:18.802Z,93
2022-08-31T07:49:19.194Z,93
2022-08-31T07:50:20.008Z,93
2022-08-31T07:51:20.382Z,93
2022-08-31T07:52:20.750Z,93
2022-08-31T07:53:21.196Z,93
2022-08-31T07:54:22.916Z,93
2022-08-31T07:55:23.582Z,93
2022-08-31T07:56:23.989Z,93
2022-08-31T07:57:24.393Z,93
2022-08-31T07:58:24.795Z,93
2022-08-31T07:59:25.204Z,93
2022-08-31T08:00:25.930Z,93
2022-08-31T08:01:26.393Z,93
2022-08-31T08:02:26.946Z,93
2022-08-31T08:03:27.426Z,93
2022-08-31T08:04:27.814Z,93
2022-08-31T08:05:28.886Z,93
2022-08-31T08:06:32.572Z,93
2022-08-31T08:07:34.347Z,93
2022-08-31T08:08:34.762Z,93
2022-08-31T08:09:35.613Z,93
2022-08-31T08:10:36.051Z,93
2022-08-31T08:11:36.955Z,93
2022-08-31T08:12:37.341Z,93
2022-08-31T08:13:37.766Z,93
2022-08-31T08:14:38.141Z,93
2022-08-31T08:15:39.287Z,93
2022-08-31T08:16:41.032Z,93
2022-08-31T08:17:41.492Z,93
2022-08-31T08:18:41.884Z,93
2022-08-31T08:19:42.281Z,93
2022-08-31T08:20:43.031Z,93
2022-08-31T08:21:43.447Z,93
2022-08-31T08:22:54.090Z,93
2022-08-31T08:23:56.064Z,93
2022-08-31T08:24:56.863Z,92
2022-08-31T08:25:57.933Z,92
2022-08-31T08:26:58.345Z,92
2022-08-31T08:27:58.748Z,92
2022-08-31T08:28:59.159Z,92
2022-08-31T08:29:59.535Z,92
2022-08-31T08:31:00.417Z,92
2022-08-31T08:32:00.993Z,92
2022-08-31T08:33:01.457Z,92
2022-08-31T08:34:01.833Z,92
2022-08-31T08:35:02.189Z,92
2022-08-31T08:36:03.002Z,92
2022-08-31T08:37:03.394Z,92
2022-08-31T08:38:07.670Z,92
2022-08-31T08:39:08.363Z,92
2022-08-31T08:40:08.774Z,92
2022-08-31T08:41:09.625Z,92
2022-08-31T08:42:09.985Z,92
2022-08-31T08:43:10.344Z,92
2022-08-31T08:44:10.747Z,92
2022-08-31T08:45:18.416Z,92
2022-08-31T08:46:33.834Z,92
2022-08-31T08:47:38.584Z,92
2022-08-31T08:48:39.333Z,92
2022-08-31T08:49:39.727Z,92
2022-08-31T08:50:40.093Z,92
2022-08-31T08:51:40.894Z,92
2022-08-31T08:52:41.300Z,92
2022-08-31T08:53:41.728Z,92
2022-08-31T08:54:42.607Z,92
2022-08-31T08:55:43.127Z,92
2022-08-31T08:56:43.964Z,92
2022-08-31T08:57:44.332Z,92
2022-08-31T08:58:44.732Z,92
2022-08-31T08:59:45.092Z,92
2022-08-31T09:00:45.477Z,92
2022-08-31T09:01:46.354Z,92
2022-08-31T09:02:46.908Z,92
2022-08-31T09:03:50.305Z,92
2022-08-31T09:04:50.695Z,92
2022-08-31T09:05:51.054Z,92
2022-08-31T09:06:54.328Z,92
2022-08-31T09:07:55.040Z,92
2022-08-31T09:08:55.697Z,91
2022-08-31T09:09:56.095Z,91
2022-08-31T09:10:56.500Z,91
2022-08-31T09:11:57.231Z,91
2022-08-31T09:12:57.633Z,91
2022-08-31T09:13:58.030Z,91
2022-08-31T09:14:58.417Z,91
2022-08-31T09:15:58.862Z,91
2022-08-31T09:16:59.689Z,91
2022-08-31T09:18:00.206Z,91
2022-08-31T09:19:00.597Z,91
2022-08-31T09:20:00.972Z,91
2022-08-31T09:21:01.373Z,91
2022-08-31T09:22:02.128Z,91
2022-08-31T09:23:02.553Z,91
2022-08-31T09:24:02.962Z,90
2022-08-31T09:25:03.333Z,90
2022-08-31T09:26:07.999Z,90
2022-08-31T09:27:09.271Z,90
2022-08-31T09:28:09.654Z,89
2022-08-31T09:29:10.054Z,89
2022-08-31T09:30:10.446Z,89
2022-08-31T09:31:10.856Z,88
2022-08-31T09:32:11.594Z,88
2022-08-31T09:33:11.984Z,88
2022-08-31T09:34:12.345Z,88
2022-08-31T09:35:12.742Z,86
2022-08-31T09:36:13.523Z,86
2022-08-31T09:37:14.227Z,86
2022-08-31T09:38:14.866Z,86
2022-08-31T09:39:15.232Z,86
2022-08-31T09:40:15.679Z,86
2022-08-31T09:41:16.138Z,86
2022-08-31T09:42:17.590Z,86
2022-08-31T09:43:18.231Z,86
2022-08-31T09:44:19.961Z,83
2022-08-31T09:45:20.345Z,82
2022-08-31T09:46:22.819Z,82
2022-08-31T09:47:23.292Z,82
2022-08-31T09:48:23.677Z,82
2022-08-31T09:49:24.041Z,79
2022-08-31T09:50:24.416Z,79
2022-08-31T09:51:25.175Z,79
2022-08-31T09:52:26.661Z,78
2022-08-31T09:53:27.037Z,78
2022-08-31T09:54:27.447Z,78
2022-08-31T09:55:27.839Z,78
2022-08-31T09:56:28.228Z,78
2022-08-31T09:57:29.028Z,78
2022-08-31T09:58:29.441Z,78
2022-08-31T09:59:29.830Z,78
2022-08-31T10:00:30.233Z,78
2022-08-31T10:01:30.968Z,75
2022-08-31T10:02:31.413Z,76
2022-08-31T10:03:31.803Z,76
2022-08-31T10:04:32.193Z,76
2022-08-31T10:05:32.711Z,78
2022-08-31T10:06:33.500Z,79
2022-08-31T10:07:33.903Z,79
2022-08-31T10:08:34.292Z,80
2022-08-31T10:09:34.670Z,80
2022-08-31T10:10:35.100Z,80
2022-08-31T10:11:35.934Z,80
2022-08-31T10:12:36.337Z,80
2022-08-31T10:13:36.723Z,80
2022-08-31T10:14:37.118Z,79
2022-08-31T10:15:37.554Z,79
2022-08-31T10:16:38.393Z,79
2022-08-31T10:17:38.785Z,79
2022-08-31T10:18:39.146Z,78
2022-08-31T10:19:39.545Z,78
2022-08-31T10:20:39.914Z,78
2022-08-31T10:21:40.599Z,78
2022-08-31T10:22:40.999Z,78
2022-08-31T10:23:41.400Z,78
2022-08-31T10:24:41.807Z,78
2022-08-31T10:25:42.204Z,77
2022-08-31T10:26:42.945Z,76
2022-08-31T10:27:43.311Z,76
2022-08-31T10:28:43.700Z,76
2022-08-31T10:29:44.088Z,71
2022-08-31T10:30:44.550Z,71
2022-08-31T10:31:48.632Z,71
2022-08-31T10:32:49.202Z,71
2022-08-31T10:33:49.561Z,71
2022-08-31T10:34:49.952Z,71
2022-08-31T10:35:50.354Z,71
2022-08-31T10:36:51.092Z,71
2022-08-31T10:37:51.484Z,71
2022-08-31T10:38:51.854Z,71
2022-08-31T10:39:52.254Z,71
2022-08-31T10:40:52.738Z,71
2022-08-31T10:41:53.531Z,71
2022-08-31T10:42:53.938Z,71
2022-08-31T10:43:54.327Z,71
2022-08-31T10:44:54.718Z,71
2022-08-31T10:45:55.158Z,71
2022-08-31T10:46:55.967Z,71
2022-08-31T10:47:56.355Z,71
2022-08-31T10:48:56.758Z,71
2022-08-31T10:49:57.135Z,71
2022-08-31T10:50:57.534Z,71
2022-08-31T10:51:58.335Z,71
2022-08-31T10:53:02.461Z,71
2022-08-31T10:54:03.236Z,71
2022-08-31T10:55:03.635Z,59
2022-08-31T10:56:04.001Z,59
2022-08-31T10:57:04.815Z,59
2022-08-31T10:58:05.662Z,59
2022-08-31T10:59:06.024Z,59
2022-08-31T11:00:06.401Z,59
2022-08-31T11:01:06.875Z,59
2022-08-31T11:02:07.598Z,59
2022-08-31T11:03:08.004Z,59
2022-08-31T11:04:08.510Z,59
2022-08-31T11:05:08.936Z,59
2022-08-31T11:06:09.335Z,59
2022-08-31T11:07:10.022Z,54
2022-08-31T11:08:10.430Z,54
2022-08-31T11:09:12.977Z,54
2022-08-31T11:10:15.308Z,54
2022-08-31T11:11:15.701Z,54
2022-08-31T11:12:16.501Z,54
2022-08-31T11:13:17.060Z,59
2022-08-31T11:14:17.549Z,59
2022-08-31T11:15:17.916Z,59
2022-08-31T11:16:19.493Z,59
2022-08-31T11:17:20.388Z,59
2022-08-31T11:18:20.760Z,59
2022-08-31T11:19:21.157Z,59
2022-08-31T11:20:21.529Z,59
2022-08-31T11:21:21.901Z,59
2022-08-31T11:22:22.306Z,59
2022-08-31T11:23:22.703Z,59
2022-08-31T11:24:23.100Z,59
2022-08-31T11:25:23.492Z,59
2022-08-31T11:26:23.901Z,59
2022-08-31T11:27:24.282Z,59
2022-08-31T11:28:24.698Z,59
2022-08-31T11:29:25.069Z,59
2022-08-31T11:30:25.467Z,59
2022-08-31T11:31:25.884Z,59
2022-08-31T11:32:26.336Z,59
2022-08-31T11:33:26.743Z,59
2022-08-31T11:34:27.102Z,59
2022-08-31T11:35:27.486Z,59
2022-08-31T11:36:27.848Z,59
2022-08-31T11:37:28.263Z,59
2022-08-31T11:38:28.663Z,59
2022-08-31T11:39:29.061Z,59
2022-08-31T11:40:29.521Z,59
2022-08-31T11:41:29.921Z,59
2022-08-31T11:42:30.589Z,59
2022-08-31T11:43:30.947Z,59
2022-08-31T11:44:31.304Z,59
2022-08-31T11:45:33.578Z,59
2022-08-31T11:46:34.503Z,49
2022-08-31T11:47:35.362Z,49
2022-08-31T11:48:35.756Z,49
2022-08-31T11:49:37.099Z,49
2022-08-31T11:50:37.488Z,49
2022-08-31T11:51:41.218Z,49
2022-08-31T11:52:42.389Z,49
2022-08-31T11:53:42.806Z,49
2022-08-31T11:54:43.180Z,49
2022-08-31T11:55:43.582Z,49
2022-08-31T11:56:43.976Z,49
2022-08-31T11:57:44.651Z,49
2022-08-31T11:58:45.056Z,49
2022-08-31T11:59:45.437Z,49
2022-08-31T12:00:48.798Z,49
2022-08-31T12:01:52.987Z,49
2022-08-31T12:02:53.834Z,49
2022-08-31T12:03:54.278Z,49
2022-08-31T12:04:54.712Z,46
2022-08-31T12:05:55.124Z,46
2022-08-31T12:06:55.517Z,46
2022-08-31T12:07:56.207Z,46
2022-08-31T12:08:56.595Z,46
2022-08-31T12:09:56.995Z,46
2022-08-31T12:10:57.387Z,46
2022-08-31T12:11:57.743Z,46
2022-08-31T12:12:58.564Z,46
2022-08-31T12:13:58.979Z,46
2022-08-31T12:14:59.365Z,46
2022-08-31T12:15:59.825Z,46
2022-08-31T12:17:00.296Z,46
2022-08-31T12:18:01.075Z,46
2022-08-31T12:19:01.434Z,46
2022-08-31T12:20:02.470Z,46
2022-08-31T12:21:03.110Z,46
2022-08-31T12:22:03.473Z,46
2022-08-31T12:23:04.198Z,46
2022-08-31T12:24:04.557Z,46
2022-08-31T12:25:05.119Z,47
2022-08-31T12:26:05.513Z,47
2022-08-31T12:27:05.881Z,47
2022-08-31T12:28:06.643Z,47
2022-08-31T12:29:07.031Z,46
2022-08-31T12:30:07.412Z,46
2022-08-31T12:31:07.842Z,46
2022-08-31T12:32:10.935Z,46
2022-08-31T12:33:12.177Z,46
2022-08-31T12:34:12.597Z,46
2022-08-31T12:35:12.996Z,46
2022-08-31T12:36:13.359Z,46
2022-08-31T12:37:13.755Z,46
2022-08-31T12:38:14.560Z,46
2022-08-31T12:39:14.976Z,46
2022-08-31T12:40:15.442Z,46
2022-08-31T12:41:15.930Z,46
2022-08-31T12:42:16.341Z,46
2022-08-31T12:43:17.140Z,46
2022-08-31T12:44:17.500Z,46
2022-08-31T12:45:17.865Z,46
2022-08-31T12:46:18.271Z,46
2022-08-31T12:47:22.304Z,46
2022-08-31T12:48:24.867Z,46
2022-08-31T12:49:25.268Z,45
2022-08-31T12:50:25.638Z,45
2022-08-31T12:51:26.037Z,45
2022-08-31T12:52:26.872Z,45
2022-08-31T12:53:27.672Z,45
2022-08-31T12:54:28.076Z,45
2022-08-31T12:55:28.473Z,45
2022-08-31T12:56:28.885Z,45
2022-08-31T12:57:29.264Z,45
2022-08-31T12:58:29.978Z,45
2022-08-31T12:59:51.303Z,45
2022-08-31T13:01:00.171Z,45
2022-08-31T13:02:00.752Z,45
2022-08-31T13:03:01.395Z,45
2022-08-31T13:04:02.299Z,45
2022-08-31T13:05:02.697Z,45
2022-08-31T13:06:03.099Z,45
2022-08-31T13:07:03.522Z,45
2022-08-31T13:08:06.864Z,45
2022-08-31T13:09:09.801Z,45
2022-08-31T13:10:10.172Z,45
2022-08-31T13:11:10.579Z,45
2022-08-31T13:12:10.974Z,45
2022-08-31T13:13:11.380Z,45
2022-08-31T13:14:12.129Z,45
2022-08-31T13:15:14.350Z,45
2022-08-31T13:16:14.999Z,45
2022-08-31T13:17:15.481Z,45
2022-08-31T13:18:15.950Z,45
2022-08-31T13:19:16.697Z,45
2022-08-31T13:20:17.088Z,45
2022-08-31T13:21:17.487Z,45
2022-08-31T13:22:17.886Z,45
2022-08-31T13:23:18.498Z,45
2022-08-31T13:24:19.275Z,45
2022-08-31T13:25:19.664Z,44
2022-08-31T13:26:20.030Z,44
2022-08-31T13:27:20.444Z,44
2022-08-31T13:28:20.853Z,45
2022-08-31T13:29:21.648Z,45
2022-08-31T13:30:22.038Z,45
2022-08-31T13:31:25.995Z,45
2022-08-31T13:32:26.449Z,45
2022-08-31T13:33:26.818Z,45
2022-08-31T13:34:27.620Z,45
2022-08-31T13:35:28.031Z,45
2022-08-31T13:36:28.426Z,45
2022-08-31T13:37:28.795Z,45
2022-08-31T13:38:29.199Z,45
2022-08-31T13:39:29.894Z,45
2022-08-31T13:40:30.398Z,45
2022-08-31T13:41:30.840Z,45
2022-08-31T13:42:31.232Z,45
2022-08-31T13:43:35.567Z,45
2022-08-31T13:44:37.967Z,45
2022-08-31T13:45:38.404Z,45
2022-08-31T13:46:43.436Z,45
2022-08-31T13:47:56.479Z,45
2022-08-31T13:48:58.222Z,45
2022-08-31T13:49:59.020Z,45
2022-08-31T13:50:59.410Z,45
2022-08-31T13:51:59.813Z,45
2022-08-31T13:53:25.521Z,45
2022-08-31T13:54:26.643Z,45
2022-08-31T13:55:27.318Z,45
2022-08-31T13:56:30.721Z,45
2022-08-31T13:57:35.337Z,45
2022-08-31T13:58:35.872Z,45
2022-08-31T13:59:36.246Z,45
2022-08-31T14:00:36.964Z,45
2022-08-31T14:01:37.373Z,45
2022-08-31T14:02:37.959Z,45
2022-08-31T14:03:38.352Z,45
2022-08-31T14:04:38.765Z,45
2022-08-31T14:05:39.559Z,45
2022-08-31T14:06:39.947Z,45
2022-08-31T14:07:40.310Z,45
2022-08-31T14:08:40.675Z,45
2022-08-31T14:09:41.042Z,45
2022-08-31T14:10:42.265Z,45
2022-08-31T14:11:42.664Z,45
2022-08-31T14:12:43.044Z,45
2022-08-31T14:13:43.424Z,44
2022-08-31T14:14:43.819Z,44
2022-08-31T14:15:44.539Z,44
2022-08-31T14:16:46.357Z,44
2022-08-31T14:19:23.174Z,44
2022-08-31T14:20:23.578Z,44
2022-08-31T14:21:24.493Z,44
2022-08-31T14:22:24.935Z,44
2022-08-31T14:23:25.328Z,44
2022-08-31T14:24:25.747Z,44
2022-08-31T14:25:26.158Z,44
2022-08-31T14:26:26.950Z,44
2022-08-31T14:27:27.355Z,44
2022-08-31T14:28:28.683Z,44
2022-08-31T14:29:29.082Z,44
2022-08-31T14:30:29.590Z,44